»·PEaware :: N5491J KOKB-KSNA

N5491J :: KOKB-KSNA

FLIGHT INFORMATION

Flight Status: Arrived
Operator: Privately registered:
United States
More flights under this callsign
Pilot: David L. (16466)
Aircraft: CESSNA 172 SKYHAWK
(C172)
More flights by this aircraft type
Origin: KOKB Oceanside Mun
United States
Destination: KSNA John Wayne-Orange Co
United States
More flights between these airports :: More routes between these airports
Route: +OCN V23 SLI
File this flight plan on PilotEdge
Remarks:
Altitude:
(Current/Filed)
6,000ft
Speed:
(Current/Filed)
110kts
Departed: 09-Oct-18 03:52 PM
Arrived: 09-Oct-18 04:45 PM
Distance/Time
Traveled:
38nm/0:53
Distance/Time
To Go:
Arrived

Flight Plot

Page will automatically refresh every two minutes.


Map Options




Map Legend


Flown Route
Filed Route
Departure Airport
Arrival Airport
Navaid (VOR, NDB)
Fix

Horizontal Profiles

Position Reports

Time Latitude Longitude Heading Altitude Ground
Speed
09-Oct-18 15:35 33.217000 -117.355665 348 31ft 0kts
09-Oct-18 15:36 33.217000 -117.355665 348 31ft 0kts
09-Oct-18 15:37 33.217000 -117.355665 348 31ft 0kts
09-Oct-18 15:38 33.217000 -117.355665 348 31ft 0kts
09-Oct-18 15:39 33.217000 -117.355665 348 31ft 0kts
09-Oct-18 15:40 33.217000 -117.355665 348 31ft 0kts
09-Oct-18 15:41 33.217000 -117.355665 348 31ft 0kts
09-Oct-18 15:42 33.217000 -117.355665 348 31ft 0kts
09-Oct-18 15:43 33.217000 -117.355665 348 31ft 0kts
09-Oct-18 15:44 33.217000 -117.355665 348 31ft 0kts
09-Oct-18 15:45 33.217000 -117.355665 348 31ft 0kts
09-Oct-18 15:46 33.217003 -117.355667 331 31ft 0kts
09-Oct-18 15:47 33.217779 -117.351181 79 31ft 26kts
09-Oct-18 15:48 33.218279 -117.347407 55 31ft 0kts
09-Oct-18 15:49 33.218279 -117.347407 55 31ft 0kts
09-Oct-18 15:50 33.218279 -117.347407 55 31ft 0kts
09-Oct-18 15:51 33.218279 -117.347407 55 31ft 0kts
09-Oct-18 15:52 33.218279 -117.347407 55 31ft 0kts
09-Oct-18 15:53 33.218279 -117.347407 55 31ft 0kts
09-Oct-18 15:54 33.216717 -117.359405 251 415ft 67kts
09-Oct-18 15:55 33.210002 -117.381679 248 1506ft 72kts
09-Oct-18 15:56 33.222174 -117.400934 314 2543ft 82kts
09-Oct-18 15:57 33.241316 -117.418643 318 3443ft 90kts
09-Oct-18 15:58 33.258069 -117.438509 312 4413ft 81kts
09-Oct-18 15:59 33.272771 -117.455952 309 5395ft 68kts
09-Oct-18 16:00 33.289212 -117.475359 312 5956ft 96kts
09-Oct-18 16:01 33.310415 -117.499667 313 5991ft 108kts
09-Oct-18 16:02 33.331916 -117.524420 313 5988ft 107kts
09-Oct-18 16:03 33.353398 -117.549359 313 5988ft 107kts
09-Oct-18 16:04 33.374658 -117.574121 312 5989ft 106kts
09-Oct-18 16:05 33.395886 -117.598917 313 5991ft 108kts
09-Oct-18 16:06 33.417338 -117.624048 312 5990ft 106kts
09-Oct-18 16:07 33.438534 -117.648905 313 5908ft 113kts
09-Oct-18 16:08 33.461766 -117.677283 311 5219ft 123kts
09-Oct-18 16:09 33.486277 -117.705431 312 4522ft 123kts
09-Oct-18 16:10 33.510807 -117.733775 311 3999ft 115kts
09-Oct-18 16:11 33.533389 -117.760234 311 3998ft 112kts
09-Oct-18 16:12 33.555802 -117.786582 311 3999ft 113kts
09-Oct-18 16:13 33.578239 -117.812985 311 4000ft 113kts
09-Oct-18 16:14 33.600700 -117.839430 311 4000ft 113kts
09-Oct-18 16:15 33.623261 -117.866010 311 4000ft 114kts
09-Oct-18 16:16 33.645878 -117.892674 311 4000ft 113kts
09-Oct-18 16:17 33.668298 -117.919127 311 4000ft 113kts
09-Oct-18 16:18 33.690770 -117.945662 311 4000ft 113kts
09-Oct-18 16:19 33.713174 -117.972137 311 4000ft 113kts
09-Oct-18 16:20 33.735489 -117.998520 311 4000ft 112kts
09-Oct-18 16:21 33.757580 -118.024663 311 4000ft 111kts
09-Oct-18 16:22 33.776280 -118.046102 327 3995ft 113kts
09-Oct-18 16:23 33.799334 -118.016762 70 3995ft 122kts
09-Oct-18 16:24 33.813294 -117.979414 64 3994ft 122kts
09-Oct-18 16:25 33.828063 -117.942386 64 3992ft 122kts
09-Oct-18 16:26 33.842785 -117.905357 64 3991ft 122kts
09-Oct-18 16:27 33.855069 -117.874404 64 3989ft 122kts
09-Oct-18 16:28 33.869714 -117.837444 64 3988ft 122kts
09-Oct-18 16:29 33.884252 -117.800687 64 3986ft 121kts
09-Oct-18 16:30 33.897653 -117.766724 63 3983ft 105kts
09-Oct-18 16:31 33.910178 -117.735003 60 3981ft 100kts
09-Oct-18 16:32 33.926580 -117.710304 26 3877ft 99kts
09-Oct-18 16:33 33.950427 -117.693275 0 3482ft 97kts
09-Oct-18 16:34 33.949620 -117.711105 182 3483ft 104kts
09-Oct-18 16:35 33.917736 -117.715253 210 3481ft 96kts
09-Oct-18 16:36 33.896813 -117.728280 211 3311ft 99kts
09-Oct-18 16:37 33.873753 -117.742820 211 3406ft 97kts
09-Oct-18 16:38 33.850640 -117.757530 211 3409ft 93kts
09-Oct-18 16:39 33.827546 -117.772317 212 2994ft 90kts
09-Oct-18 16:40 33.804697 -117.786869 211 2601ft 96kts
09-Oct-18 16:41 33.778886 -117.803255 204 2198ft 88kts
09-Oct-18 16:42 33.761643 -117.814956 213 1814ft 87kts
09-Oct-18 16:43 33.736008 -117.829859 209 1299ft 89kts
09-Oct-18 16:44 33.718211 -117.842284 207 900ft 89kts
09-Oct-18 16:45 33.697207 -117.855276 206 447ft 87kts
09-Oct-18 16:46 33.679046 -117.866696 211 60ft 44kts
09-Oct-18 16:47 33.677310 -117.866589 116 60ft 0kts
09-Oct-18 16:48 33.676393 -117.865629 207 60ft 0kts
09-Oct-18 16:49 33.675585 -117.866143 208 60ft 17kts
09-Oct-18 16:50 33.671725 -117.868375 208 60ft 20kts

Navigation Log

Ident Type
Flight plan parsing failed, navigation log unavailable